sensor_id;sensor_type;location;lat;lon;timestamp;temperature;humidity
52903;DHT22;38765;53.176;7.090;2022-07-23T00:00:26;15.40;99.90
52903;DHT22;38765;53.176;7.090;2022-07-23T00:05:48;15.50;99.90
52903;DHT22;38765;53.176;7.090;2022-07-23T00:08:19;15.40;99.90
52903;DHT22;38765;53.176;7.090;2022-07-23T00:10:47;14.70;99.90
52903;DHT22;38765;53.176;7.090;2022-07-23T00:13:15;15.40;99.90
52903;DHT22;38765;53.176;7.090;2022-07-23T00:16:02;15.40;99.90
52903;DHT22;38765;53.176;7.090;2022-07-23T00:18:29;14.90;99.90
52903;DHT22;38765;53.176;7.090;2022-07-23T00:20:58;15.40;99.90
52903;DHT22;38765;53.176;7.090;2022-07-23T00:23:26;15.30;99.90
52903;DHT22;38765;53.176;7.090;2022-07-23T00:25:54;15.30;99.90
52903;DHT22;38765;53.176;7.090;2022-07-23T00:28:22;15.40;99.90
52903;DHT22;38765;53.176;7.090;2022-07-23T00:30:48;15.40;99.90
52903;DHT22;38765;53.176;7.090;2022-07-23T00:33:14;15.40;99.90
52903;DHT22;38765;53.176;7.090;2022-07-23T00:35:40;15.40;99.90
52903;DHT22;38765;53.176;7.090;2022-07-23T00:38:09;15.40;99.90
52903;DHT22;38765;53.176;7.090;2022-07-23T00:40:36;15.40;99.90
52903;DHT22;38765;53.176;7.090;2022-07-23T00:43:02;15.40;99.90
52903;DHT22;38765;53.176;7.090;2022-07-23T00:45:28;15.40;99.90
52903;DHT22;38765;53.176;7.090;2022-07-23T00:47:54;15.40;99.90
52903;DHT22;38765;53.176;7.090;2022-07-23T00:50:19;15.40;99.90
52903;DHT22;38765;53.176;7.090;2022-07-23T00:52:45;15.50;99.90
52903;DHT22;38765;53.176;7.090;2022-07-23T00:55:14;15.40;99.90
52903;DHT22;38765;53.176;7.090;2022-07-23T00:57:40;15.40;99.90
52903;DHT22;38765;53.176;7.090;2022-07-23T01:00:14;15.30;99.90
52903;DHT22;38765;53.176;7.090;2022-07-23T01:02:47;15.30;99.90
52903;DHT22;38765;53.176;7.090;2022-07-23T01:05:16;15.30;99.90
52903;DHT22;38765;53.176;7.090;2022-07-23T01:07:45;15.30;99.90
52903;DHT22;38765;53.176;7.090;2022-07-23T01:10:13;15.20;99.90
52903;DHT22;38765;53.176;7.090;2022-07-23T01:13:09;15.10;99.90
52903;DHT22;38765;53.176;7.090;2022-07-23T01:15:55;15.10;99.90
52903;DHT22;38765;53.176;7.090;2022-07-23T01:18:21;15.10;99.90
52903;DHT22;38765;53.176;7.090;2022-07-23T01:20:46;15.80;99.90
52903;DHT22;38765;53.176;7.090;2022-07-23T01:23:15;15.00;99.90
52903;DHT22;38765;53.176;7.090;2022-07-23T01:25:52;15.00;99.90
52903;DHT22;38765;53.176;7.090;2022-07-23T01:28:20;14.90;99.90
52903;DHT22;38765;53.176;7.090;2022-07-23T01:30:46;15.00;99.90
52903;DHT22;38765;53.176;7.090;2022-07-23T01:33:12;14.90;99.90
52903;DHT22;38765;53.176;7.090;2022-07-23T01:35:43;14.90;99.90
52903;DHT22;38765;53.176;7.090;2022-07-23T01:40:58;15.40;99.90
52903;DHT22;38765;53.176;7.090;2022-07-23T01:43:23;14.40;99.90
52903;DHT22;38765;53.176;7.090;2022-07-23T01:45:49;14.30;99.90
52903;DHT22;38765;53.176;7.090;2022-07-23T01:48:15;14.70;99.90
52903;DHT22;38765;53.176;7.090;2022-07-23T01:50:44;15.00;99.90
52903;DHT22;38765;53.176;7.090;2022-07-23T01:53:16;14.20;99.90
52903;DHT22;38765;53.176;7.090;2022-07-23T01:55:44;14.20;99.90
52903;DHT22;38765;53.176;7.090;2022-07-23T01:58:13;14.70;99.90
52903;DHT22;38765;53.176;7.090;2022-07-23T02:00:58;14.70;99.90
52903;DHT22;38765;53.176;7.090;2022-07-23T02:03:23;14.30;99.90
52903;DHT22;38765;53.176;7.090;2022-07-23T02:05:49;14.60;99.90
52903;DHT22;38765;53.176;7.090;2022-07-23T02:08:15;14.60;99.90
52903;DHT22;38765;53.176;7.090;2022-07-23T02:10:45;14.20;99.90
52903;DHT22;38765;53.176;7.090;2022-07-23T02:13:13;14.40;99.90
52903;DHT22;38765;53.176;7.090;2022-07-23T02:15:39;15.10;99.90
52903;DHT22;38765;53.176;7.090;2022-07-23T02:18:05;14.40;99.90
52903;DHT22;38765;53.176;7.090;2022-07-23T02:20:31;14.40;99.90
52903;DHT22;38765;53.176;7.090;2022-07-23T02:23:01;14.40;99.90
52903;DHT22;38765;53.176;7.090;2022-07-23T02:25:30;14.40;99.90
52903;DHT22;38765;53.176;7.090;2022-07-23T02:27:55;14.40;99.90
52903;DHT22;38765;53.176;7.090;2022-07-23T02:30:41;13.80;99.90
52903;DHT22;38765;53.176;7.090;2022-07-23T02:33:07;14.30;99.90
52903;DHT22;38765;53.176;7.090;2022-07-23T02:35:35;14.30;99.90
52903;DHT22;38765;53.176;7.090;2022-07-23T02:38:03;14.30;99.90
52903;DHT22;38765;53.176;7.090;2022-07-23T02:40:31;14.20;99.90
52903;DHT22;38765;53.176;7.090;2022-07-23T02:42:57;14.20;99.90
52903;DHT22;38765;53.176;7.090;2022-07-23T02:45:25;14.20;99.90
52903;DHT22;38765;53.176;7.090;2022-07-23T02:47:50;14.20;99.90
52903;DHT22;38765;53.176;7.090;2022-07-23T02:50:16;13.70;99.90
52903;DHT22;38765;53.176;7.090;2022-07-23T02:52:48;14.20;99.90
52903;DHT22;38765;53.176;7.090;2022-07-23T02:55:13;14.20;99.90
52903;DHT22;38765;53.176;7.090;2022-07-23T02:57:39;14.10;99.90
52903;DHT22;38765;53.176;7.090;2022-07-23T03:00:07;14.10;99.90
52903;DHT22;38765;53.176;7.090;2022-07-23T03:02:34;14.10;99.90
52903;DHT22;38765;53.176;7.090;2022-07-23T03:05:02;14.10;99.90
52903;DHT22;38765;53.176;7.090;2022-07-23T03:07:30;14.00;99.90
52903;DHT22;38765;53.176;7.090;2022-07-23T03:09:56;14.00;99.90
52903;DHT22;38765;53.176;7.090;2022-07-23T03:12:22;14.00;99.90
52903;DHT22;38765;53.176;7.090;2022-07-23T03:14:47;14.00;99.90
52903;DHT22;38765;53.176;7.090;2022-07-23T03:17:13;14.00;99.90
52903;DHT22;38765;53.176;7.090;2022-07-23T03:19:39;14.00;99.90
52903;DHT22;38765;53.176;7.090;2022-07-23T03:22:07;14.00;99.90
52903;DHT22;38765;53.176;7.090;2022-07-23T03:24:33;14.00;99.90
52903;DHT22;38765;53.176;7.090;2022-07-23T03:27:19;14.00;99.90
52903;DHT22;38765;53.176;7.090;2022-07-23T03:29:45;14.00;99.90
52903;DHT22;38765;53.176;7.090;2022-07-23T03:32:13;14.00;99.90
52903;DHT22;38765;53.176;7.090;2022-07-23T03:34:50;14.00;99.90
52903;DHT22;38765;53.176;7.090;2022-07-23T03:37:18;14.00;99.90
52903;DHT22;38765;53.176;7.090;2022-07-23T03:39:44;14.00;99.90
52903;DHT22;38765;53.176;7.090;2022-07-23T03:42:30;14.00;99.90
52903;DHT22;38765;53.176;7.090;2022-07-23T03:44:56;14.00;99.90
52903;DHT22;38765;53.176;7.090;2022-07-23T03:47:21;14.00;99.90
52903;DHT22;38765;53.176;7.090;2022-07-23T03:49:56;13.50;99.90
52903;DHT22;38765;53.176;7.090;2022-07-23T03:52:25;14.00;99.90
52903;DHT22;38765;53.176;7.090;2022-07-23T03:54:55;14.00;99.90
52903;DHT22;38765;53.176;7.090;2022-07-23T03:57:38;14.00;99.90
52903;DHT22;38765;53.176;7.090;2022-07-23T04:00:07;14.00;99.90
52903;DHT22;38765;53.176;7.090;2022-07-23T04:02:54;14.00;99.90
52903;DHT22;38765;53.176;7.090;2022-07-23T04:05:40;14.00;99.90
52903;DHT22;38765;53.176;7.090;2022-07-23T04:08:09;14.00;99.90
52903;DHT22;38765;53.176;7.090;2022-07-23T04:10:34;13.90;99.90
52903;DHT22;38765;53.176;7.090;2022-07-23T04:13:02;14.00;99.90
52903;DHT22;38765;53.176;7.090;2022-07-23T04:15:45;14.00;99.90
52903;DHT22;38765;53.176;7.090;2022-07-23T04:18:13;14.00;99.90
52903;DHT22;38765;53.176;7.090;2022-07-23T04:20:52;14.00;99.90
52903;DHT22;38765;53.176;7.090;2022-07-23T04:23:18;13.80;99.90
52903;DHT22;38765;53.176;7.090;2022-07-23T04:25:49;13.90;99.90
52903;DHT22;38765;53.176;7.090;2022-07-23T04:28:17;13.90;99.90
52903;DHT22;38765;53.176;7.090;2022-07-23T04:30:45;13.80;99.90
52903;DHT22;38765;53.176;7.090;2022-07-23T04:33:14;13.80;99.90
52903;DHT22;38765;53.176;7.090;2022-07-23T04:35:39;13.80;99.90
52903;DHT22;38765;53.176;7.090;2022-07-23T04:38:08;13.90;99.90
52903;DHT22;38765;53.176;7.090;2022-07-23T04:40:36;14.00;99.90
52903;DHT22;38765;53.176;7.090;2022-07-23T04:43:04;14.10;99.90
52903;DHT22;38765;53.176;7.090;2022-07-23T04:45:30;14.10;99.90
52903;DHT22;38765;53.176;7.090;2022-07-23T04:47:56;14.20;99.90
52903;DHT22;38765;53.176;7.090;2022-07-23T04:50:22;14.20;99.90
52903;DHT22;38765;53.176;7.090;2022-07-23T04:52:50;14.30;99.90
52903;DHT22;38765;53.176;7.090;2022-07-23T04:55:18;14.30;99.90
52903;DHT22;38765;53.176;7.090;2022-07-23T04:57:46;14.40;99.90
52903;DHT22;38765;53.176;7.090;2022-07-23T05:00:14;14.40;99.90
52903;DHT22;38765;53.176;7.090;2022-07-23T05:02:40;14.50;99.90
52903;DHT22;38765;53.176;7.090;2022-07-23T05:05:06;14.50;99.90
52903;DHT22;38765;53.176;7.090;2022-07-23T05:07:32;14.10;99.90
52903;DHT22;38765;53.176;7.090;2022-07-23T05:09:57;14.60;99.90
52903;DHT22;38765;53.176;7.090;2022-07-23T05:12:26;14.60;99.90
52903;DHT22;38765;53.176;7.090;2022-07-23T05:14:54;14.60;99.90
52903;DHT22;38765;53.176;7.090;2022-07-23T05:17:22;14.60;99.90
52903;DHT22;38765;53.176;7.090;2022-07-23T05:19:53;14.70;99.90
52903;DHT22;38765;53.176;7.090;2022-07-23T05:22:19;14.70;99.90
52903;DHT22;38765;53.176;7.090;2022-07-23T05:24:44;14.70;99.90
52903;DHT22;38765;53.176;7.090;2022-07-23T05:27:14;14.80;99.90
52903;DHT22;38765;53.176;7.090;2022-07-23T05:29:43;14.80;99.90
52903;DHT22;38765;53.176;7.090;2022-07-23T05:32:08;14.80;99.90
52903;DHT22;38765;53.176;7.090;2022-07-23T05:34:34;14.80;99.90
52903;DHT22;38765;53.176;7.090;2022-07-23T05:37:09;14.80;99.90
52903;DHT22;38765;53.176;7.090;2022-07-23T05:39:42;14.90;99.90
52903;DHT22;38765;53.176;7.090;2022-07-23T05:42:08;15.00;99.90
52903;DHT22;38765;53.176;7.090;2022-07-23T05:44:41;15.00;99.90
52903;DHT22;38765;53.176;7.090;2022-07-23T05:47:09;15.10;99.90
52903;DHT22;38765;53.176;7.090;2022-07-23T05:49:45;15.10;99.90
52903;DHT22;38765;53.176;7.090;2022-07-23T05:52:13;15.20;99.90
52903;DHT22;38765;53.176;7.090;2022-07-23T05:54:49;15.20;99.90
52903;DHT22;38765;53.176;7.090;2022-07-23T05:57:17;15.10;99.90
52903;DHT22;38765;53.176;7.090;2022-07-23T05:59:47;15.20;99.90
52903;DHT22;38765;53.176;7.090;2022-07-23T06:02:16;15.20;99.90
52903;DHT22;38765;53.176;7.090;2022-07-23T06:04:47;15.10;99.90
52903;DHT22;38765;53.176;7.090;2022-07-23T06:07:13;15.30;99.90
52903;DHT22;38765;53.176;7.090;2022-07-23T06:09:44;15.40;99.90
52903;DHT22;38765;53.176;7.090;2022-07-23T06:12:30;15.50;99.90
52903;DHT22;38765;53.176;7.090;2022-07-23T06:15:04;15.60;99.90
52903;DHT22;38765;53.176;7.090;2022-07-23T06:17:38;15.60;99.90
52903;DHT22;38765;53.176;7.090;2022-07-23T06:20:07;15.40;99.90
52903;DHT22;38765;53.176;7.090;2022-07-23T06:22:36;15.30;99.90
52903;DHT22;38765;53.176;7.090;2022-07-23T06:25:05;15.70;99.90
52903;DHT22;38765;53.176;7.090;2022-07-23T06:27:38;15.80;99.90
52903;DHT22;38765;53.176;7.090;2022-07-23T06:30:10;15.90;99.90
52903;DHT22;38765;53.176;7.090;2022-07-23T06:32:38;16.00;99.90
52903;DHT22;38765;53.176;7.090;2022-07-23T06:35:04;15.90;99.90
52903;DHT22;38765;53.176;7.090;2022-07-23T06:37:30;16.00;99.90
52903;DHT22;38765;53.176;7.090;2022-07-23T06:39:56;16.00;99.90
52903;DHT22;38765;53.176;7.090;2022-07-23T06:42:42;16.10;99.90
52903;DHT22;38765;53.176;7.090;2022-07-23T06:47:53;15.60;99.90
52903;DHT22;38765;53.176;7.090;2022-07-23T06:50:19;16.30;99.90
52903;DHT22;38765;53.176;7.090;2022-07-23T06:52:45;16.40;99.90
52903;DHT22;38765;53.176;7.090;2022-07-23T06:55:13;16.40;99.90
52903;DHT22;38765;53.176;7.090;2022-07-23T06:57:39;16.40;99.90
52903;DHT22;38765;53.176;7.090;2022-07-23T07:00:19;16.40;99.90
52903;DHT22;38765;53.176;7.090;2022-07-23T07:03:03;16.50;99.90
52903;DHT22;38765;53.176;7.090;2022-07-23T07:05:29;16.50;99.90
52903;DHT22;38765;53.176;7.090;2022-07-23T07:08:02;16.70;99.90
52903;DHT22;38765;53.176;7.090;2022-07-23T07:10:33;16.80;99.90
52903;DHT22;38765;53.176;7.090;2022-07-23T07:13:01;16.80;99.90
52903;DHT22;38765;53.176;7.090;2022-07-23T07:15:27;16.80;99.90
52903;DHT22;38765;53.176;7.090;2022-07-23T07:17:56;16.90;99.90
52903;DHT22;38765;53.176;7.090;2022-07-23T07:20:22;17.00;99.90
52903;DHT22;38765;53.176;7.090;2022-07-23T07:22:48;17.00;99.90
52903;DHT22;38765;53.176;7.090;2022-07-23T07:25:17;17.10;99.90
52903;DHT22;38765;53.176;7.090;2022-07-23T07:27:42;17.20;99.90
52903;DHT22;38765;53.176;7.090;2022-07-23T07:30:09;17.20;99.90
52903;DHT22;38765;53.176;7.090;2022-07-23T07:32:45;17.30;99.90
52903;DHT22;38765;53.176;7.090;2022-07-23T07:35:11;17.30;99.90
52903;DHT22;38765;53.176;7.090;2022-07-23T07:37:52;17.30;99.90
52903;DHT22;38765;53.176;7.090;2022-07-23T07:40:23;17.30;99.90
52903;DHT22;38765;53.176;7.090;2022-07-23T07:42:59;17.30;99.90
52903;DHT22;38765;53.176;7.090;2022-07-23T07:45:42;17.40;99.90
52903;DHT22;38765;53.176;7.090;2022-07-23T07:48:17;17.40;99.90
52903;DHT22;38765;53.176;7.090;2022-07-23T07:51:08;17.50;99.90
52903;DHT22;38765;53.176;7.090;2022-07-23T07:53:54;17.30;99.90
52903;DHT22;38765;53.176;7.090;2022-07-23T08:20:19;17.40;99.90
52903;DHT22;38765;53.176;7.090;2022-07-23T08:22:49;17.70;99.90
52903;DHT22;38765;53.176;7.090;2022-07-23T08:51:29;17.60;99.90
52903;DHT22;38765;53.176;7.090;2022-07-23T08:54:20;17.70;99.90
52903;DHT22;38765;53.176;7.090;2022-07-23T08:56:50;17.80;99.90
52903;DHT22;38765;53.176;7.090;2022-07-23T08:59:18;17.90;99.90
52903;DHT22;38765;53.176;7.090;2022-07-23T09:01:52;17.90;99.90
52903;DHT22;38765;53.176;7.090;2022-07-23T09:04:26;18.40;99.90
52903;DHT22;38765;53.176;7.090;2022-07-23T09:06:54;18.20;99.90
52903;DHT22;38765;53.176;7.090;2022-07-23T09:09:21;18.20;99.90
52903;DHT22;38765;53.176;7.090;2022-07-23T09:23:03;18.40;99.90
52903;DHT22;38765;53.176;7.090;2022-07-23T09:26:00;18.40;99.90
52903;DHT22;38765;53.176;7.090;2022-07-23T09:28:26;18.40;99.90
52903;DHT22;38765;53.176;7.090;2022-07-23T11:06:10;20.10;99.90
52903;DHT22;38765;53.176;7.090;2022-07-23T11:08:35;20.10;99.90
52903;DHT22;38765;53.176;7.090;2022-07-23T11:13:36;20.20;99.90
52903;DHT22;38765;53.176;7.090;2022-07-23T11:16:05;20.30;99.90
52903;DHT22;38765;53.176;7.090;2022-07-23T11:24:11;20.40;99.90
52903;DHT22;38765;53.176;7.090;2022-07-23T11:29:51;20.50;99.90
52903;DHT22;38765;53.176;7.090;2022-07-23T11:32:08;20.50;99.90
52903;DHT22;38765;53.176;7.090;2022-07-23T11:34:39;20.40;99.90
52903;DHT22;38765;53.176;7.090;2022-07-23T11:37:29;20.40;99.90
52903;DHT22;38765;53.176;7.090;2022-07-23T11:39:54;20.40;99.90
52903;DHT22;38765;53.176;7.090;2022-07-23T11:42:23;20.30;99.90
52903;DHT22;38765;53.176;7.090;2022-07-23T11:51:28;20.40;99.90
52903;DHT22;38765;53.176;7.090;2022-07-23T11:54:05;20.50;99.90
52903;DHT22;38765;53.176;7.090;2022-07-23T11:57:02;20.40;99.90
52903;DHT22;38765;53.176;7.090;2022-07-23T12:07:31;20.30;99.90
52903;DHT22;38765;53.176;7.090;2022-07-23T12:10:27;20.40;99.90
52903;DHT22;38765;53.176;7.090;2022-07-23T12:13:20;20.40;99.90
52903;DHT22;38765;53.176;7.090;2022-07-23T12:16:06;20.40;99.90
52903;DHT22;38765;53.176;7.090;2022-07-23T12:22:04;20.60;99.90
52903;DHT22;38765;53.176;7.090;2022-07-23T12:25:00;20.50;99.90
52903;DHT22;38765;53.176;7.090;2022-07-23T12:31:02;20.60;99.90
52903;DHT22;38765;53.176;7.090;2022-07-23T12:33:56;20.50;99.90
52903;DHT22;38765;53.176;7.090;2022-07-23T12:42:49;20.60;99.90
52903;DHT22;38765;53.176;7.090;2022-07-23T12:46:02;20.20;99.90
52903;DHT22;38765;53.176;7.090;2022-07-23T12:55:04;20.00;99.90
52903;DHT22;38765;53.176;7.090;2022-07-23T12:57:47;20.20;99.90
52903;DHT22;38765;53.176;7.090;2022-07-23T13:00:13;20.20;99.90
52903;DHT22;38765;53.176;7.090;2022-07-23T13:02:45;20.40;99.90
52903;DHT22;38765;53.176;7.090;2022-07-23T13:05:16;20.60;99.90
52903;DHT22;38765;53.176;7.090;2022-07-23T13:07:49;21.00;99.90
52903;DHT22;38765;53.176;7.090;2022-07-23T13:10:18;21.30;99.90
52903;DHT22;38765;53.176;7.090;2022-07-23T13:12:43;21.60;99.90
52903;DHT22;38765;53.176;7.090;2022-07-23T13:15:09;21.70;99.90
52903;DHT22;38765;53.176;7.090;2022-07-23T13:17:37;21.70;99.90
52903;DHT22;38765;53.176;7.090;2022-07-23T13:20:19;21.70;99.90
52903;DHT22;38765;53.176;7.090;2022-07-23T13:22:47;21.60;99.90
52903;DHT22;38765;53.176;7.090;2022-07-23T13:25:12;21.60;99.90
52903;DHT22;38765;53.176;7.090;2022-07-23T13:27:45;21.40;99.90
52903;DHT22;38765;53.176;7.090;2022-07-23T13:30:13;21.40;99.90
52903;DHT22;38765;53.176;7.090;2022-07-23T13:32:40;21.20;99.90
52903;DHT22;38765;53.176;7.090;2022-07-23T13:35:08;21.20;99.90
52903;DHT22;38765;53.176;7.090;2022-07-23T13:37:54;21.10;99.90
52903;DHT22;38765;53.176;7.090;2022-07-23T13:40:20;21.10;99.90
52903;DHT22;38765;53.176;7.090;2022-07-23T13:42:46;21.20;99.90
52903;DHT22;38765;53.176;7.090;2022-07-23T13:45:22;21.10;99.90
52903;DHT22;38765;53.176;7.090;2022-07-23T13:47:47;21.10;99.90
52903;DHT22;38765;53.176;7.090;2022-07-23T13:50:16;21.10;99.90
52903;DHT22;38765;53.176;7.090;2022-07-23T13:52:44;21.40;99.90
52903;DHT22;38765;53.176;7.090;2022-07-23T13:58:11;22.00;99.90
52903;DHT22;38765;53.176;7.090;2022-07-23T14:00:41;21.80;99.90
52903;DHT22;38765;53.176;7.090;2022-07-23T14:21:28;22.30;99.90
52903;DHT22;38765;53.176;7.090;2022-07-23T14:27:41;21.60;99.90
52903;DHT22;38765;53.176;7.090;2022-07-23T14:30:44;22.20;99.90
52903;DHT22;38765;53.176;7.090;2022-07-23T14:33:23;21.90;99.90
52903;DHT22;38765;53.176;7.090;2022-07-23T14:39:00;21.80;99.90
52903;DHT22;38765;53.176;7.090;2022-07-23T14:45:04;21.70;99.90
52903;DHT22;38765;53.176;7.090;2022-07-23T14:50:09;21.90;99.90
52903;DHT22;38765;53.176;7.090;2022-07-23T14:52:55;22.50;99.90
52903;DHT22;38765;53.176;7.090;2022-07-23T15:04:11;22.20;99.90
52903;DHT22;38765;53.176;7.090;2022-07-23T15:09:32;22.00;99.90
52903;DHT22;38765;53.176;7.090;2022-07-23T15:12:09;22.20;99.90
52903;DHT22;38765;53.176;7.090;2022-07-23T15:20:46;22.80;99.90
52903;DHT22;38765;53.176;7.090;2022-07-23T15:30:56;22.20;99.90
52903;DHT22;38765;53.176;7.090;2022-07-23T15:33:34;22.00;99.90
52903;DHT22;38765;53.176;7.090;2022-07-23T15:38:58;21.80;99.90
52903;DHT22;38765;53.176;7.090;2022-07-23T15:41:29;21.80;99.90
52903;DHT22;38765;53.176;7.090;2022-07-23T15:53:18;21.60;99.90
52903;DHT22;38765;53.176;7.090;2022-07-23T15:59:28;21.70;99.90
52903;DHT22;38765;53.176;7.090;2022-07-23T16:02:20;21.70;99.90
52903;DHT22;38765;53.176;7.090;2022-07-23T16:15:37;21.80;99.90
52903;DHT22;38765;53.176;7.090;2022-07-23T16:18:22;21.70;99.90
52903;DHT22;38765;53.176;7.090;2022-07-23T16:21:35;21.80;99.90
52903;DHT22;38765;53.176;7.090;2022-07-23T16:28:09;21.60;99.90
52903;DHT22;38765;53.176;7.090;2022-07-23T16:37:46;21.80;99.90
52903;DHT22;38765;53.176;7.090;2022-07-23T16:47:10;22.20;99.90
52903;DHT22;38765;53.176;7.090;2022-07-23T17:18:27;21.40;99.90
52903;DHT22;38765;53.176;7.090;2022-07-23T17:53:07;21.00;99.90
52903;DHT22;38765;53.176;7.090;2022-07-23T17:55:59;21.20;99.90
52903;DHT22;38765;53.176;7.090;2022-07-23T17:58:51;20.70;99.90
52903;DHT22;38765;53.176;7.090;2022-07-23T18:02:07;20.70;99.90
52903;DHT22;38765;53.176;7.090;2022-07-23T18:04:46;20.70;99.90
52903;DHT22;38765;53.176;7.090;2022-07-23T18:10:18;20.90;99.90
52903;DHT22;38765;53.176;7.090;2022-07-23T18:13:03;20.90;99.90
52903;DHT22;38765;53.176;7.090;2022-07-23T18:15:43;21.00;99.90
52903;DHT22;38765;53.176;7.090;2022-07-23T18:18:22;21.00;99.90
52903;DHT22;38765;53.176;7.090;2022-07-23T18:20:54;20.90;99.90
52903;DHT22;38765;53.176;7.090;2022-07-23T18:23:29;20.80;99.90
52903;DHT22;38765;53.176;7.090;2022-07-23T18:26:00;20.80;99.90
52903;DHT22;38765;53.176;7.090;2022-07-23T19:27:10;19.20;99.90
52903;DHT22;38765;53.176;7.090;2022-07-23T19:29:35;19.20;99.90
52903;DHT22;38765;53.176;7.090;2022-07-23T19:32:14;19.10;99.90
52903;DHT22;38765;53.176;7.090;2022-07-23T19:34:40;19.10;99.90
52903;DHT22;38765;53.176;7.090;2022-07-23T19:37:06;19.00;99.90
52903;DHT22;38765;53.176;7.090;2022-07-23T19:39:39;18.90;99.90
52903;DHT22;38765;53.176;7.090;2022-07-23T19:42:08;18.90;99.90
52903;DHT22;38765;53.176;7.090;2022-07-23T19:44:34;18.70;99.90
52903;DHT22;38765;53.176;7.090;2022-07-23T19:46:59;18.70;99.90
52903;DHT22;38765;53.176;7.090;2022-07-23T19:49:25;18.70;99.90
52903;DHT22;38765;53.176;7.090;2022-07-23T19:51:51;18.60;99.90
52903;DHT22;38765;53.176;7.090;2022-07-23T19:54:18;19.10;99.90
52903;DHT22;38765;53.176;7.090;2022-07-23T19:56:44;18.50;99.90
52903;DHT22;38765;53.176;7.090;2022-07-23T19:59:12;18.50;99.90
52903;DHT22;38765;53.176;7.090;2022-07-23T20:01:38;18.40;99.90
52903;DHT22;38765;53.176;7.090;2022-07-23T20:04:04;18.30;99.90
52903;DHT22;38765;53.176;7.090;2022-07-23T20:06:29;18.30;99.90
52903;DHT22;38765;53.176;7.090;2022-07-23T20:08:55;18.20;99.90
52903;DHT22;38765;53.176;7.090;2022-07-23T20:11:21;18.20;99.90
52903;DHT22;38765;53.176;7.090;2022-07-23T20:13:47;17.90;99.90
52903;DHT22;38765;53.176;7.090;2022-07-23T20:16:13;18.10;99.90
52903;DHT22;38765;53.176;7.090;2022-07-23T20:18:41;18.00;99.90
52903;DHT22;38765;53.176;7.090;2022-07-23T20:21:06;18.00;99.90
52903;DHT22;38765;53.176;7.090;2022-07-23T20:23:32;17.90;99.90
52903;DHT22;38765;53.176;7.090;2022-07-23T20:25:58;17.80;99.90
52903;DHT22;38765;53.176;7.090;2022-07-23T20:28:24;17.80;99.90
52903;DHT22;38765;53.176;7.090;2022-07-23T20:30:50;17.80;99.90
52903;DHT22;38765;53.176;7.090;2022-07-23T20:33:17;17.80;99.90
52903;DHT22;38765;53.176;7.090;2022-07-23T20:35:46;17.40;99.90
52903;DHT22;38765;53.176;7.090;2022-07-23T20:38:11;17.70;99.90
52903;DHT22;38765;53.176;7.090;2022-07-23T20:40:37;17.40;99.90
52903;DHT22;38765;53.176;7.090;2022-07-23T20:43:04;17.40;99.90
52903;DHT22;38765;53.176;7.090;2022-07-23T20:45:30;17.50;99.90
52903;DHT22;38765;53.176;7.090;2022-07-23T20:47:55;17.40;99.90
52903;DHT22;38765;53.176;7.090;2022-07-23T20:50:22;17.40;99.90
52903;DHT22;38765;53.176;7.090;2022-07-23T20:52:48;17.30;99.90
52903;DHT22;38765;53.176;7.090;2022-07-23T20:55:14;17.20;99.90
52903;DHT22;38765;53.176;7.090;2022-07-23T20:57:40;17.20;99.90
52903;DHT22;38765;53.176;7.090;2022-07-23T21:00:07;17.20;99.90
52903;DHT22;38765;53.176;7.090;2022-07-23T21:02:33;17.20;99.90
52903;DHT22;38765;53.176;7.090;2022-07-23T21:04:59;17.10;99.90
52903;DHT22;38765;53.176;7.090;2022-07-23T21:07:24;16.80;99.90
52903;DHT22;38765;53.176;7.090;2022-07-23T21:09:50;17.00;99.90
52903;DHT22;38765;53.176;7.090;2022-07-23T21:12:16;17.10;99.90
52903;DHT22;38765;53.176;7.090;2022-07-23T21:14:43;17.00;99.90
52903;DHT22;38765;53.176;7.090;2022-07-23T21:17:09;17.00;99.90
52903;DHT22;38765;53.176;7.090;2022-07-23T21:19:34;17.00;99.90
52903;DHT22;38765;53.176;7.090;2022-07-23T21:22:00;16.90;99.90
52903;DHT22;38765;53.176;7.090;2022-07-23T21:24:26;16.90;99.90
52903;DHT22;38765;53.176;7.090;2022-07-23T21:26:51;16.90;99.90
52903;DHT22;38765;53.176;7.090;2022-07-23T21:29:17;16.80;99.90
52903;DHT22;38765;53.176;7.090;2022-07-23T21:31:46;16.80;99.90
52903;DHT22;38765;53.176;7.090;2022-07-23T21:34:12;16.80;99.90
52903;DHT22;38765;53.176;7.090;2022-07-23T21:36:40;16.70;99.90
52903;DHT22;38765;53.176;7.090;2022-07-23T21:39:09;16.70;99.90
52903;DHT22;38765;53.176;7.090;2022-07-23T21:41:34;16.70;99.90
52903;DHT22;38765;53.176;7.090;2022-07-23T21:44:00;16.70;99.90
52903;DHT22;38765;53.176;7.090;2022-07-23T21:46:28;16.70;99.90
52903;DHT22;38765;53.176;7.090;2022-07-23T21:48:56;16.50;99.90
52903;DHT22;38765;53.176;7.090;2022-07-23T21:51:22;16.70;99.90
52903;DHT22;38765;53.176;7.090;2022-07-23T21:53:48;16.60;99.90
52903;DHT22;38765;53.176;7.090;2022-07-23T21:56:13;16.60;99.90
52903;DHT22;38765;53.176;7.090;2022-07-23T21:58:39;16.60;99.90
52903;DHT22;38765;53.176;7.090;2022-07-23T22:01:05;16.50;99.90
52903;DHT22;38765;53.176;7.090;2022-07-23T22:03:30;16.50;99.90
52903;DHT22;38765;53.176;7.090;2022-07-23T22:05:56;16.50;99.90
52903;DHT22;38765;53.176;7.090;2022-07-23T22:08:22;16.50;99.90
52903;DHT22;38765;53.176;7.090;2022-07-23T22:10:48;16.50;99.90
52903;DHT22;38765;53.176;7.090;2022-07-23T22:13:16;16.50;99.90
52903;DHT22;38765;53.176;7.090;2022-07-23T22:15:42;16.40;99.90
52903;DHT22;38765;53.176;7.090;2022-07-23T22:18:08;16.30;99.90
52903;DHT22;38765;53.176;7.090;2022-07-23T22:20:33;16.40;99.90
52903;DHT22;38765;53.176;7.090;2022-07-23T22:22:59;16.40;99.90
52903;DHT22;38765;53.176;7.090;2022-07-23T22:25:26;16.30;99.90
52903;DHT22;38765;53.176;7.090;2022-07-23T22:27:52;16.30;99.90
52903;DHT22;38765;53.176;7.090;2022-07-23T22:30:18;16.30;99.90
52903;DHT22;38765;53.176;7.090;2022-07-23T22:32:46;15.80;99.90
52903;DHT22;38765;53.176;7.090;2022-07-23T22:35:12;16.30;99.90
52903;DHT22;38765;53.176;7.090;2022-07-23T22:37:40;15.90;99.90
52903;DHT22;38765;53.176;7.090;2022-07-23T22:40:06;16.30;99.90
52903;DHT22;38765;53.176;7.090;2022-07-23T22:42:31;16.20;99.90
52903;DHT22;38765;53.176;7.090;2022-07-23T22:44:59;16.20;99.90
52903;DHT22;38765;53.176;7.090;2022-07-23T22:47:27;16.20;99.90
52903;DHT22;38765;53.176;7.090;2022-07-23T22:49:58;16.20;99.90
52903;DHT22;38765;53.176;7.090;2022-07-23T22:52:26;16.20;99.90
52903;DHT22;38765;53.176;7.090;2022-07-23T22:54:52;16.30;99.90
52903;DHT22;38765;53.176;7.090;2022-07-23T22:57:17;16.20;99.90
52903;DHT22;38765;53.176;7.090;2022-07-23T22:59:45;16.50;99.90
52903;DHT22;38765;53.176;7.090;2022-07-23T23:02:11;16.20;99.90
52903;DHT22;38765;53.176;7.090;2022-07-23T23:04:36;16.20;99.90
52903;DHT22;38765;53.176;7.090;2022-07-23T23:07:02;16.10;99.90